Time;durP1;ratioP1;P1;durP2;ratioP2;P2;SDS_P1;SDS_P2;PMS_P1;PMS_P2;Temp;Humidity;BMP_temperature;BMP_pressure;BME280_temperature;BME280_humidity;BME280_pressure;Samples;Min_cycle;Max_cycle;Signal;HPM_P1;HPM_P2
2021/05/02 00:00:48;;;;;;;7.00;5.70;;;8.10;99.90;;;;;;470443;253;27880;-64
2021/05/02 00:02:49;;;;;;;7.40;5.47;;;8.10;99.90;;;;;;467871;251;28119;-65
2021/05/02 00:04:50;;;;;;;6.43;5.70;;;8.10;99.90;;;;;;467787;253;28048;-64
2021/05/02 00:06:52;;;;;;;9.57;6.60;;;8.10;99.90;;;;;;467788;253;28043;-65
2021/05/02 00:08:53;;;;;;;7.57;6.77;;;8.10;99.90;;;;;;467788;253;28511;-66
2021/05/02 00:10:54;;;;;;;10.40;7.47;;;8.00;99.90;;;;;;467770;253;28452;-64
2021/05/02 00:12:55;;;;;;;8.70;7.80;;;8.10;99.90;;;;;;467774;254;28479;-65
2021/05/02 00:14:57;;;;;;;9.07;8.17;;;8.00;99.90;;;;;;467779;253;28583;-64
2021/05/02 00:16:58;;;;;;;8.37;7.47;;;8.10;99.90;;;;;;467790;253;27898;-65
2021/05/02 00:18:59;;;;;;;10.83;8.93;;;8.10;99.90;;;;;;467778;253;27939;-65
2021/05/02 00:21:00;;;;;;;9.67;8.57;;;8.10;99.90;;;;;;467773;253;27712;-64
2021/05/02 00:23:02;;;;;;;9.10;7.70;;;8.10;99.90;;;;;;467770;253;28166;-64
2021/05/02 00:25:03;;;;;;;10.57;7.80;;;8.20;99.90;;;;;;467784;253;27820;-64
2021/05/02 00:27:04;;;;;;;11.17;7.73;;;8.20;99.90;;;;;;467768;253;27833;-64
2021/05/02 00:29:05;;;;;;;8.77;7.87;;;8.20;99.90;;;;;;467776;253;28249;-65
2021/05/02 00:31:07;;;;;;;12.40;8.27;;;8.10;99.90;;;;;;467780;253;28147;-64
2021/05/02 00:33:08;;;;;;;12.00;7.80;;;8.10;99.90;;;;;;467782;253;27969;-64
2021/05/02 00:35:09;;;;;;;8.37;7.40;;;8.10;99.90;;;;;;467787;253;27988;-65
2021/05/02 00:37:10;;;;;;;8.83;7.70;;;8.10;99.90;;;;;;467779;253;28171;-65
2021/05/02 00:39:12;;;;;;;12.43;8.93;;;8.00;99.90;;;;;;467774;253;28248;-65
2021/05/02 00:41:13;;;;;;;8.77;7.27;;;8.00;99.90;;;;;;467777;253;28625;-64
2021/05/02 00:43:14;;;;;;;12.10;8.00;;;8.00;99.90;;;;;;467795;253;28149;-65
2021/05/02 00:45:15;;;;;;;10.30;7.20;;;8.00;99.90;;;;;;467767;253;28418;-64
2021/05/02 00:47:17;;;;;;;6.97;6.27;;;8.00;99.90;;;;;;467768;254;28051;-64
2021/05/02 00:49:18;;;;;;;7.63;6.83;;;8.00;99.90;;;;;;467777;253;28031;-64
2021/05/02 00:51:19;;;;;;;9.03;7.70;;;8.00;99.90;;;;;;467764;253;27762;-64
2021/05/02 00:53:20;;;;;;;11.70;7.20;;;8.00;99.90;;;;;;467776;254;27724;-65
2021/05/02 00:55:22;;;;;;;11.20;8.60;;;8.00;99.90;;;;;;467789;253;27814;-64
2021/05/02 00:57:23;;;;;;;18.17;9.40;;;8.00;99.90;;;;;;467776;253;28161;-65
2021/05/02 00:59:24;;;;;;;9.17;7.83;;;8.00;99.90;;;;;;467773;253;27962;-64
2021/05/02 01:01:25;;;;;;;8.23;7.00;;;8.00;99.90;;;;;;467774;253;27576;-64
2021/05/02 01:03:27;;;;;;;9.00;7.20;;;8.00;99.90;;;;;;467774;253;27902;-64
2021/05/02 01:05:28;;;;;;;8.63;7.80;;;8.00;99.90;;;;;;467756;253;27771;-65
2021/05/02 01:07:29;;;;;;;9.67;7.10;;;8.00;99.90;;;;;;467777;253;28053;-65
2021/05/02 01:09:30;;;;;;;7.90;6.70;;;8.00;99.90;;;;;;467767;253;28423;-65
2021/05/02 01:11:32;;;;;;;6.67;6.07;;;8.00;99.90;;;;;;467767;253;27944;-65
2021/05/02 01:13:33;;;;;;;6.77;6.10;;;7.90;99.90;;;;;;467777;253;28389;-65
2021/05/02 01:15:34;;;;;;;6.63;6.03;;;7.90;99.90;;;;;;467770;253;28568;-64
2021/05/02 01:17:35;;;;;;;6.90;6.17;;;7.90;99.90;;;;;;467769;253;28293;-65
2021/05/02 01:19:37;;;;;;;10.87;5.73;;;7.80;99.90;;;;;;467765;253;28403;-65
2021/05/02 01:21:38;;;;;;;8.97;5.97;;;7.90;99.90;;;;;;467771;253;27987;-65
2021/05/02 01:23:39;;;;;;;6.33;5.77;;;7.80;99.90;;;;;;467776;253;27951;-65
2021/05/02 01:25:40;;;;;;;6.87;5.80;;;7.80;99.90;;;;;;467775;253;28034;-65
2021/05/02 01:27:42;;;;;;;6.27;5.67;;;7.80;99.90;;;;;;467788;253;27557;-65
2021/05/02 01:29:43;;;;;;;6.50;5.80;;;7.80;99.90;;;;;;467767;253;28150;-64
2021/05/02 01:31:44;;;;;;;7.03;5.23;;;7.70;99.90;;;;;;467749;253;27886;-65
2021/05/02 01:33:46;;;;;;;8.33;6.37;;;7.70;99.90;;;;;;467777;253;27944;-66
2021/05/02 01:35:46;;;;;;;7.40;5.50;;;7.70;99.90;;;;;;467765;253;27949;-65
2021/05/02 01:37:48;;;;;;;7.10;5.37;;;7.60;99.90;;;;;;467761;253;28027;-65
2021/05/02 01:39:49;;;;;;;8.30;6.80;;;7.60;99.90;;;;;;467763;253;27950;-64
2021/05/02 01:41:50;;;;;;;5.50;4.90;;;7.60;99.90;;;;;;467774;253;28021;-64
2021/05/02 01:43:51;;;;;;;6.47;5.73;;;7.60;99.90;;;;;;467776;253;27838;-66
2021/05/02 01:45:53;;;;;;;8.00;6.90;;;7.60;99.90;;;;;;467766;253;27957;-65
2021/05/02 01:47:54;;;;;;;6.43;5.83;;;7.60;99.90;;;;;;467762;253;28539;-65
2021/05/02 01:49:55;;;;;;;6.97;5.43;;;7.50;99.90;;;;;;467780;253;28510;-65
2021/05/02 01:51:56;;;;;;;6.57;5.30;;;7.50;99.90;;;;;;467761;253;28420;-65
2021/05/02 01:53:58;;;;;;;6.70;5.60;;;7.50;99.90;;;;;;467785;253;28520;-64
2021/05/02 01:55:59;;;;;;;8.10;5.57;;;7.50;99.90;;;;;;467771;253;28490;-64
2021/05/02 01:58:00;;;;;;;7.47;5.20;;;7.50;99.90;;;;;;467772;253;27935;-64
2021/05/02 02:00:01;;;;;;;7.53;6.20;;;7.50;99.90;;;;;;467785;253;27934;-64
2021/05/02 02:02:03;;;;;;;5.53;5.03;;;7.50;99.90;;;;;;467767;253;27909;-64
2021/05/02 02:04:04;;;;;;;9.30;7.70;;;7.50;99.90;;;;;;467770;253;27491;-64
2021/05/02 02:06:05;;;;;;;9.87;7.07;;;7.50;99.90;;;;;;467791;253;27801;-65
2021/05/02 02:08:06;;;;;;;13.47;7.43;;;7.40;99.90;;;;;;467789;253;28133;-65
2021/05/02 02:10:08;;;;;;;8.83;6.40;;;7.40;99.90;;;;;;467794;253;27911;-65
2021/05/02 02:12:09;;;;;;;6.80;5.90;;;7.40;99.90;;;;;;467769;253;28038;-65
2021/05/02 02:14:10;;;;;;;7.70;6.33;;;7.40;99.90;;;;;;467800;253;28171;-64
2021/05/02 02:16:11;;;;;;;8.23;6.10;;;7.30;99.90;;;;;;467788;253;28062;-65
2021/05/02 02:18:13;;;;;;;9.83;7.07;;;7.30;99.90;;;;;;467806;253;28137;-65
2021/05/02 02:20:14;;;;;;;10.63;7.40;;;7.30;99.90;;;;;;467782;253;28130;-64
2021/05/02 02:22:15;;;;;;;9.70;6.83;;;7.30;99.90;;;;;;467794;253;28507;-65
2021/05/02 02:24:16;;;;;;;8.77;6.63;;;7.30;99.90;;;;;;467811;253;28862;-65
2021/05/02 02:26:18;;;;;;;8.77;6.70;;;7.20;99.90;;;;;;467797;253;28465;-64
2021/05/02 02:28:19;;;;;;;7.87;6.60;;;7.20;99.90;;;;;;467784;253;28471;-65
2021/05/02 02:30:20;;;;;;;8.93;7.47;;;7.20;99.90;;;;;;467803;253;29000;-64
2021/05/02 02:32:21;;;;;;;8.60;7.17;;;7.10;99.90;;;;;;467792;253;28085;-65
2021/05/02 02:34:23;;;;;;;9.23;7.30;;;7.10;99.90;;;;;;467803;253;28016;-64
2021/05/02 02:36:24;;;;;;;8.60;6.83;;;7.10;99.90;;;;;;467797;253;28149;-64
2021/05/02 02:38:25;;;;;;;8.37;7.10;;;7.10;99.90;;;;;;467794;253;28184;-66
2021/05/02 02:40:26;;;;;;;9.00;7.43;;;7.10;99.90;;;;;;467804;253;28037;-64
2021/05/02 02:42:28;;;;;;;9.50;8.50;;;7.10;99.90;;;;;;467794;253;28153;-65
2021/05/02 02:44:29;;;;;;;9.80;8.07;;;7.10;99.90;;;;;;467796;253;28020;-64
2021/05/02 02:46:30;;;;;;;8.90;8.00;;;7.00;99.90;;;;;;467790;253;28033;-65
2021/05/02 02:48:31;;;;;;;10.07;7.70;;;7.00;99.90;;;;;;467795;253;27644;-66
2021/05/02 02:50:33;;;;;;;7.80;7.00;;;7.00;99.90;;;;;;467791;253;28145;-64
2021/05/02 02:52:34;;;;;;;8.67;6.90;;;7.00;99.90;;;;;;467774;253;28147;-64
2021/05/02 02:54:35;;;;;;;9.57;7.80;;;7.00;99.90;;;;;;467794;253;27921;-65
2021/05/02 02:56:39;;;;;;;8.40;7.30;;;7.00;99.90;;;;;;467770;253;28568;-65
2021/05/02 02:58:41;;;;;;;10.03;7.60;;;7.00;99.90;;;;;;467789;253;28273;-64
2021/05/02 03:00:42;;;;;;;8.93;7.87;;;7.00;99.90;;;;;;467781;253;29315;-65
2021/05/02 03:02:43;;;;;;;7.17;6.40;;;7.00;99.90;;;;;;466124;253;28108;-64
2021/05/02 03:04:44;;;;;;;9.27;7.97;;;7.00;99.90;;;;;;470233;253;28068;-64
2021/05/02 03:06:45;;;;;;;7.57;6.87;;;7.00;99.90;;;;;;470219;253;28060;-64
2021/05/02 03:08:47;;;;;;;9.43;7.40;;;7.00;99.90;;;;;;470246;253;28157;-64
2021/05/02 03:10:48;;;;;;;7.70;6.90;;;7.00;99.90;;;;;;470225;253;27913;-66
2021/05/02 03:12:52;;;;;;;9.00;8.10;;;7.00;99.90;;;;;;470208;253;28168;-64
2021/05/02 03:14:50;;;;;;;8.60;6.70;;;7.00;99.90;;;;;;470217;252;28272;-66
2021/05/02 03:16:52;;;;;;;13.53;8.03;;;7.00;99.90;;;;;;470226;253;28167;-64
2021/05/02 03:18:53;;;;;;;16.80;8.80;;;7.00;99.90;;;;;;470226;253;27921;-65
2021/05/02 03:20:54;;;;;;;8.27;6.80;;;7.00;99.90;;;;;;470222;253;28052;-64
2021/05/02 03:22:55;;;;;;;13.20;7.07;;;6.90;99.90;;;;;;470229;253;27908;-64
2021/05/02 03:24:57;;;;;;;8.60;7.57;;;6.90;99.90;;;;;;470225;253;28503;-66
2021/05/02 03:26:58;;;;;;;12.60;7.50;;;6.80;99.90;;;;;;470219;253;28626;-64
2021/05/02 03:28:59;;;;;;;8.90;7.50;;;6.80;99.90;;;;;;470229;253;28392;-64
2021/05/02 03:31:01;;;;;;;8.17;7.37;;;6.80;99.90;;;;;;470225;253;28624;-64
2021/05/02 03:33:02;;;;;;;8.80;7.90;;;6.80;99.90;;;;;;470239;253;28561;-65
2021/05/02 03:35:03;;;;;;;8.47;7.30;;;6.70;99.90;;;;;;470225;253;28012;-66
2021/05/02 03:37:04;;;;;;;10.47;8.70;;;6.70;99.90;;;;;;470218;253;28029;-65
2021/05/02 03:39:05;;;;;;;9.43;7.77;;;6.70;99.90;;;;;;470262;253;27918;-64
2021/05/02 03:41:07;;;;;;;11.30;8.63;;;6.70;99.90;;;;;;470216;253;27903;-64
2021/05/02 03:43:08;;;;;;;12.00;10.00;;;6.70;99.90;;;;;;470223;253;27994;-65
2021/05/02 03:45:09;;;;;;;10.73;9.40;;;6.60;99.90;;;;;;470231;253;28034;-64
2021/05/02 03:47:10;;;;;;;9.03;8.13;;;6.60;99.90;;;;;;470226;253;28017;-64
2021/05/02 03:49:12;;;;;;;8.60;7.60;;;6.60;99.90;;;;;;470225;253;27877;-64
2021/05/02 03:51:13;;;;;;;10.93;9.32;;;6.60;99.90;;;;;;470233;253;28166;-65
2021/05/02 03:53:14;;;;;;;14.70;10.90;;;6.60;99.90;;;;;;470216;253;28018;-64
2021/05/02 03:55:16;;;;;;;11.97;9.30;;;6.60;99.90;;;;;;470240;253;28767;-64
2021/05/02 03:57:17;;;;;;;11.83;9.73;;;6.60;99.90;;;;;;470240;253;27911;-65
2021/05/02 03:59:18;;;;;;;15.03;10.83;;;6.60;99.90;;;;;;470237;253;28121;-65
2021/05/02 04:01:19;;;;;;;10.13;9.03;;;6.60;99.90;;;;;;470219;253;28109;-64
2021/05/02 04:03:21;;;;;;;11.63;9.70;;;6.60;99.90;;;;;;470217;253;28258;-64
2021/05/02 04:05:22;;;;;;;13.40;10.60;;;6.50;99.90;;;;;;470239;253;28059;-64
2021/05/02 04:07:23;;;;;;;11.73;10.20;;;6.50;99.90;;;;;;470243;253;28068;-64
2021/05/02 04:09:24;;;;;;;11.03;9.10;;;6.40;99.90;;;;;;470213;253;27788;-65
2021/05/02 04:11:26;;;;;;;11.37;9.50;;;6.40;99.90;;;;;;470220;253;27797;-65
2021/05/02 04:13:27;;;;;;;12.67;9.47;;;6.40;99.90;;;;;;470217;253;28480;-64
2021/05/02 04:15:28;;;;;;;10.50;9.20;;;6.40;99.90;;;;;;470231;253;28844;-64
2021/05/02 04:17:29;;;;;;;12.20;10.40;;;6.40;99.90;;;;;;470228;253;29404;-64
2021/05/02 04:19:31;;;;;;;11.23;10.13;;;6.40;99.90;;;;;;470232;253;28509;-66
2021/05/02 04:21:32;;;;;;;9.95;8.95;;;6.30;99.90;;;;;;470229;253;28041;-64
2021/05/02 04:23:33;;;;;;;12.33;9.63;;;6.40;99.90;;;;;;470212;253;27563;-66
2021/05/02 04:25:34;;;;;;;10.30;9.20;;;6.30;99.90;;;;;;470218;253;27893;-64
2021/05/02 04:27:36;;;;;;;13.23;9.90;;;6.30;99.90;;;;;;470211;253;28105;-64
2021/05/02 04:29:37;;;;;;;9.80;8.47;;;6.20;99.90;;;;;;470217;253;28044;-66
2021/05/02 04:31:38;;;;;;;10.27;9.17;;;6.20;99.90;;;;;;470222;253;28031;-64
2021/05/02 04:33:39;;;;;;;10.47;9.20;;;6.10;99.90;;;;;;470226;253;27795;-64
2021/05/02 04:35:41;;;;;;;8.83;8.03;;;6.10;99.90;;;;;;470219;253;28485;-64
2021/05/02 04:37:42;;;;;;;12.33;9.10;;;6.00;99.90;;;;;;470226;253;28407;-64
2021/05/02 04:39:43;;;;;;;12.90;9.47;;;6.00;99.90;;;;;;470222;253;28369;-66
2021/05/02 04:41:44;;;;;;;11.87;8.77;;;6.00;99.90;;;;;;470227;253;28926;-64
2021/05/02 04:43:46;;;;;;;14.23;10.23;;;6.00;99.90;;;;;;470212;253;27912;-64
2021/05/02 04:45:47;;;;;;;13.50;11.20;;;6.00;99.90;;;;;;470217;253;27916;-64
2021/05/02 04:47:48;;;;;;;9.85;8.82;;;6.10;99.90;;;;;;470221;253;27643;-65
2021/05/02 04:49:49;;;;;;;13.60;11.27;;;6.10;99.90;;;;;;470220;253;27573;-65
2021/05/02 04:51:51;;;;;;;13.07;11.43;;;6.10;99.90;;;;;;470219;253;28037;-64
2021/05/02 04:53:52;;;;;;;11.70;9.98;;;6.20;99.90;;;;;;470198;253;28612;-64
2021/05/02 04:55:53;;;;;;;12.43;10.20;;;6.30;99.90;;;;;;470224;253;27550;-65
2021/05/02 04:57:54;;;;;;;18.03;12.20;;;6.30;99.90;;;;;;470227;253;29031;-64
2021/05/02 04:59:56;;;;;;;11.60;10.30;;;6.30;99.90;;;;;;470217;253;27565;-66
2021/05/02 05:01:57;;;;;;;12.10;10.10;;;6.30;99.90;;;;;;470219;253;28043;-65
2021/05/02 05:03:58;;;;;;;11.17;9.97;;;6.30;99.90;;;;;;470191;253;27735;-64
2021/05/02 05:05:59;;;;;;;12.20;9.10;;;6.30;99.90;;;;;;470224;253;28013;-64
2021/05/02 05:08:01;;;;;;;14.03;10.10;;;6.30;99.90;;;;;;470198;253;28157;-65
2021/05/02 05:10:02;;;;;;;12.03;9.43;;;6.30;99.90;;;;;;470205;253;28610;-66
2021/05/02 05:12:03;;;;;;;11.90;10.40;;;6.20;99.90;;;;;;470217;253;28167;-64
2021/05/02 05:14:05;;;;;;;9.60;7.77;;;6.20;99.90;;;;;;470214;253;28594;-65
2021/05/02 05:16:06;;;;;;;8.53;7.73;;;6.20;99.90;;;;;;470209;253;28529;-64
2021/05/02 05:18:07;;;;;;;9.00;7.70;;;6.20;99.90;;;;;;470210;253;27759;-64
2021/05/02 05:20:08;;;;;;;9.73;8.27;;;6.20;99.90;;;;;;470215;253;28072;-66
2021/05/02 05:22:09;;;;;;;10.33;8.87;;;6.20;99.90;;;;;;470219;253;28097;-65
2021/05/02 05:24:11;;;;;;;12.63;9.77;;;6.20;99.90;;;;;;470213;253;27784;-65
2021/05/02 05:26:12;;;;;;;10.03;8.67;;;6.20;99.90;;;;;;470219;253;27815;-64
2021/05/02 05:28:13;;;;;;;10.73;8.60;;;6.20;99.90;;;;;;470217;253;28067;-65
2021/05/02 05:30:14;;;;;;;13.33;8.80;;;6.30;99.90;;;;;;470250;253;27993;-66
2021/05/02 05:32:16;;;;;;;14.50;8.70;;;6.30;99.90;;;;;;470205;253;28062;-64
2021/05/02 05:34:17;;;;;;;10.03;9.07;;;6.30;99.90;;;;;;470194;253;28495;-65
2021/05/02 05:36:18;;;;;;;11.40;9.70;;;6.30;99.90;;;;;;470207;253;28459;-65
2021/05/02 05:38:19;;;;;;;11.57;9.93;;;6.40;99.90;;;;;;470202;253;28866;-65
2021/05/02 05:40:21;;;;;;;11.83;9.00;;;6.40;99.90;;;;;;470208;253;28150;-64
2021/05/02 05:42:22;;;;;;;13.43;9.53;;;6.40;99.90;;;;;;466496;253;27590;-64
2021/05/02 05:44:23;;;;;;;12.03;9.47;;;6.50;99.90;;;;;;479580;248;28018;-65
2021/05/02 05:46:24;;;;;;;14.53;11.00;;;6.50;99.90;;;;;;479547;247;27739;-64
2021/05/02 05:48:26;;;;;;;11.67;9.10;;;6.60;99.90;;;;;;479543;247;28103;-64
2021/05/02 05:50:28;;;;;;;11.13;8.37;;;6.60;99.90;;;;;;479530;247;28126;-65
2021/05/02 05:52:28;;;;;;;9.80;8.80;;;6.60;99.90;;;;;;479507;247;28215;-65
2021/05/02 05:54:29;;;;;;;10.77;9.33;;;6.70;99.90;;;;;;479524;247;27883;-65
2021/05/02 05:56:31;;;;;;;13.20;11.23;;;6.70;99.90;;;;;;479545;247;27915;-64
2021/05/02 05:58:32;;;;;;;13.80;11.87;;;6.60;99.90;;;;;;479582;247;28502;-64
2021/05/02 06:00:33;;;;;;;13.13;11.70;;;6.70;99.90;;;;;;479565;247;28620;-66
2021/05/02 06:02:34;;;;;;;12.33;10.50;;;6.70;99.90;;;;;;473329;245;28119;-64
2021/05/02 06:04:36;;;;;;;16.37;13.20;;;6.80;99.90;;;;;;463729;255;27910;-65
2021/05/02 06:06:37;;;;;;;17.70;12.43;;;6.80;99.90;;;;;;463727;255;27427;-65
2021/05/02 06:08:38;;;;;;;19.93;14.80;;;6.80;99.90;;;;;;463734;255;28005;-65
2021/05/02 06:10:39;;;;;;;18.97;14.70;;;6.80;99.90;;;;;;463766;255;27790;-66
2021/05/02 06:12:41;;;;;;;15.43;13.50;;;6.80;99.90;;;;;;465906;250;27822;-64
2021/05/02 06:14:42;;;;;;;24.67;14.93;;;6.80;99.90;;;;;;468402;253;27896;-64
2021/05/02 06:16:43;;;;;;;19.17;14.93;;;6.80;99.90;;;;;;468417;253;28512;-64
2021/05/02 06:18:44;;;;;;;18.30;15.20;;;6.90;99.90;;;;;;468409;253;28413;-64
2021/05/02 06:20:46;;;;;;;20.40;16.27;;;6.80;99.90;;;;;;468413;253;28062;-65
2021/05/02 06:22:47;;;;;;;23.63;15.23;;;7.00;99.90;;;;;;468405;253;28130;-65
2021/05/02 06:24:48;;;;;;;18.27;15.30;;;6.90;99.90;;;;;;468417;253;28071;-65
2021/05/02 06:26:50;;;;;;;18.10;14.90;;;7.00;99.90;;;;;;468424;253;28036;-64
2021/05/02 06:28:51;;;;;;;17.90;15.50;;;6.90;99.90;;;;;;468409;253;27883;-65
2021/05/02 06:30:52;;;;;;;19.43;16.03;;;6.90;99.90;;;;;;468408;253;27984;-64
2021/05/02 06:32:53;;;;;;;22.93;17.17;;;6.90;99.90;;;;;;468413;253;28026;-64
2021/05/02 06:34:56;;;;;;;22.80;15.10;;;6.90;99.90;;;;;;468414;253;28393;-65
2021/05/02 06:36:59;;;;;;;17.93;15.03;;;6.90;99.90;;;;;;468409;253;28525;-64
2021/05/02 06:39:00;;;;;;;16.70;13.53;;;7.00;99.90;;;;;;468412;253;27811;-65
2021/05/02 06:41:01;;;;;;;23.37;16.23;;;7.00;99.90;;;;;;468408;253;27969;-65
2021/05/02 06:43:02;;;;;;;16.23;14.40;;;7.10;99.90;;;;;;468402;253;27483;-64
2021/05/02 06:45:03;;;;;;;17.73;15.03;;;7.10;99.90;;;;;;468404;253;27978;-65
2021/05/02 06:47:05;;;;;;;18.90;15.13;;;7.20;99.90;;;;;;468406;253;28066;-65
2021/05/02 06:49:06;;;;;;;17.50;14.90;;;7.30;99.90;;;;;;468409;253;28438;-65
2021/05/02 06:51:07;;;;;;;17.73;14.80;;;7.20;99.90;;;;;;468403;253;28383;-65
2021/05/02 06:53:08;;;;;;;15.50;13.00;;;7.30;99.90;;;;;;468377;254;27895;-64
2021/05/02 06:55:10;;;;;;;16.83;13.90;;;7.40;99.90;;;;;;468388;253;27935;-64
2021/05/02 06:57:11;;;;;;;16.67;14.90;;;7.40;99.90;;;;;;468410;253;27863;-66
2021/05/02 06:59:12;;;;;;;19.67;14.83;;;7.50;99.90;;;;;;468403;253;28135;-64
2021/05/02 07:01:14;;;;;;;17.00;14.17;;;7.40;99.90;;;;;;468405;253;27929;-65
2021/05/02 07:03:16;;;;;;;18.70;14.80;;;7.40;99.90;;;;;;468415;253;27895;-65
2021/05/02 07:05:16;;;;;;;16.30;12.40;;;7.50;99.90;;;;;;468405;253;28440;-65
2021/05/02 07:07:17;;;;;;;19.23;14.87;;;7.40;99.90;;;;;;468396;253;28427;-66
2021/05/02 07:09:19;;;;;;;11.63;10.43;;;7.40;99.90;;;;;;468408;253;28147;-65
2021/05/02 07:11:20;;;;;;;14.30;11.40;;;7.40;99.90;;;;;;468401;253;27954;-65
2021/05/02 07:13:21;;;;;;;19.20;15.27;;;7.40;99.90;;;;;;468400;253;27940;-64
2021/05/02 07:15:22;;;;;;;19.97;14.07;;;7.50;99.90;;;;;;468391;253;27960;-65
2021/05/02 07:17:24;;;;;;;17.90;14.50;;;7.50;99.90;;;;;;468386;253;28136;-65
2021/05/02 07:19:25;;;;;;;19.77;14.80;;;7.50;99.90;;;;;;468406;253;27688;-64
2021/05/02 07:21:26;;;;;;;17.90;15.00;;;7.70;99.90;;;;;;468417;253;27826;-65
2021/05/02 07:23:27;;;;;;;15.30;12.27;;;7.90;99.90;;;;;;468410;253;28304;-64
2021/05/02 07:25:29;;;;;;;13.77;12.33;;;8.00;99.90;;;;;;468411;253;28035;-65
2021/05/02 07:27:30;;;;;;;18.27;14.70;;;8.00;99.90;;;;;;468408;253;28399;-66
2021/05/02 07:29:31;;;;;;;19.80;14.70;;;7.90;99.90;;;;;;468406;253;27936;-65
2021/05/02 07:31:32;;;;;;;16.33;14.50;;;7.70;99.90;;;;;;468406;253;28045;-65
2021/05/02 07:33:34;;;;;;;16.50;14.30;;;7.70;99.90;;;;;;468402;253;27578;-64
2021/05/02 07:35:35;;;;;;;18.43;15.43;;;7.70;99.90;;;;;;468400;253;28035;-64
2021/05/02 07:37:36;;;;;;;19.10;13.53;;;7.60;99.90;;;;;;468445;253;27840;-64
2021/05/02 07:39:37;;;;;;;15.63;13.50;;;7.60;99.90;;;;;;468324;253;27700;-65
2021/05/02 07:41:39;;;;;;;17.97;14.23;;;7.70;99.90;;;;;;468434;253;27961;-65
2021/05/02 07:43:40;;;;;;;18.47;15.90;;;7.70;99.90;;;;;;488671;242;27767;-65
2021/05/02 07:45:41;;;;;;;18.50;15.50;;;7.90;99.90;;;;;;491390;241;27936;-66
2021/05/02 07:47:42;;;;;;;16.23;14.53;;;8.00;99.90;;;;;;491381;241;28423;-66
2021/05/02 07:49:44;;;;;;;19.90;15.97;;;8.00;99.90;;;;;;491363;241;28408;-64
2021/05/02 07:53:56;;;;;;;16.90;14.83;;;8.20;99.90;;;;;;481996;246;27550;-63
2021/05/02 07:55:57;;;;;;;20.93;16.73;;;8.20;99.90;;;;;;482484;245;27801;-66
2021/05/02 07:57:58;;;;;;;17.07;13.73;;;8.20;99.90;;;;;;482500;245;27888;-63
2021/05/02 08:00:00;;;;;;;17.90;14.77;;;8.20;99.90;;;;;;482490;245;27901;-64
2021/05/02 08:02:01;;;;;;;20.67;16.20;;;8.40;99.90;;;;;;482496;246;27640;-64
2021/05/02 08:04:02;;;;;;;19.10;14.27;;;8.60;99.90;;;;;;482503;245;28011;-64
2021/05/02 08:06:03;;;;;;;17.43;14.50;;;8.60;99.90;;;;;;482491;245;27655;-65
2021/05/02 08:08:05;;;;;;;18.67;14.67;;;8.80;99.90;;;;;;482486;245;28442;-64
2021/05/02 08:10:06;;;;;;;19.70;14.60;;;8.70;99.90;;;;;;482489;245;28517;-64
2021/05/02 08:12:09;;;;;;;16.90;13.60;;;8.60;99.90;;;;;;482495;245;28034;-64
2021/05/02 08:14:08;;;;;;;15.63;13.10;;;8.60;99.90;;;;;;482500;245;27854;-63
2021/05/02 08:16:09;;;;;;;18.47;14.23;;;8.60;99.90;;;;;;482491;245;27759;-65
2021/05/02 08:18:11;;;;;;;14.93;13.33;;;8.60;99.90;;;;;;482478;246;27767;-64
2021/05/02 08:20:12;;;;;;;15.93;14.10;;;8.60;99.90;;;;;;482514;245;27838;-64
2021/05/02 08:22:13;;;;;;;16.33;13.23;;;8.60;99.90;;;;;;482491;246;27885;-64
2021/05/02 08:24:14;;;;;;;15.53;13.83;;;8.80;99.90;;;;;;482479;245;27779;-64
2021/05/02 08:26:16;;;;;;;14.97;13.43;;;8.80;99.90;;;;;;482487;245;28535;-67
2021/05/02 08:28:17;;;;;;;16.03;12.80;;;8.80;99.90;;;;;;482489;245;28481;-64
2021/05/02 08:30:18;;;;;;;15.77;13.60;;;9.00;99.90;;;;;;482482;246;27648;-63
2021/05/02 08:32:19;;;;;;;17.83;14.77;;;9.10;99.90;;;;;;482491;245;27817;-64
2021/05/02 08:34:21;;;;;;;16.43;14.50;;;9.20;99.90;;;;;;482483;245;27972;-63
2021/05/02 08:36:22;;;;;;;26.00;13.50;;;9.10;99.90;;;;;;482478;246;28013;-64
2021/05/02 08:38:23;;;;;;;14.37;12.07;;;9.10;99.90;;;;;;482496;246;27743;-64
2021/05/02 08:40:24;;;;;;;14.90;13.40;;;9.10;99.90;;;;;;482480;245;28013;-64
2021/05/02 08:42:26;;;;;;;14.00;12.60;;;9.20;99.90;;;;;;482482;245;28241;-64
2021/05/02 08:44:27;;;;;;;14.47;12.43;;;9.30;99.90;;;;;;482487;245;28345;-63
2021/05/02 08:46:29;;;;;;;16.63;13.90;;;9.40;99.90;;;;;;482486;246;28786;-64
2021/05/02 08:48:29;;;;;;;14.70;13.10;;;9.60;99.90;;;;;;482471;246;28102;-63
2021/05/02 08:50:31;;;;;;;17.30;12.70;;;9.70;99.90;;;;;;482496;246;27950;-64
2021/05/02 08:52:32;;;;;;;14.83;12.40;;;9.80;99.90;;;;;;482481;245;28157;-63
2021/05/02 08:54:33;;;;;;;17.43;13.67;;;9.90;99.90;;;;;;482495;245;28017;-64
2021/05/02 08:56:34;;;;;;;15.37;13.77;;;9.80;99.90;;;;;;482482;245;27865;-65
2021/05/02 08:58:37;;;;;;;16.80;14.80;;;;;;;;;;482475;245;28122;-64
2021/05/02 09:00:38;;;;;;;16.60;14.10;;;9.60;99.90;;;;;;482490;246;27187;-63
2021/05/02 09:02:39;;;;;;;16.97;13.77;;;9.40;99.90;;;;;;481318;245;28115;-65
2021/05/02 09:04:41;;;;;;;17.20;13.83;;;9.20;99.90;;;;;;481949;245;28144;-67
2021/05/02 09:06:42;;;;;;;15.60;12.90;;;9.30;99.90;;;;;;481933;245;28679;-65
2021/05/02 09:08:43;;;;;;;14.47;12.97;;;9.20;99.90;;;;;;481924;242;28218;-66
2021/05/02 09:10:45;;;;;;;15.23;13.63;;;9.30;99.90;;;;;;481919;245;28154;-65
2021/05/02 09:12:46;;;;;;;14.70;12.90;;;9.20;99.90;;;;;;477260;244;28223;-65
2021/05/02 09:14:47;;;;;;;15.30;13.80;;;9.20;99.90;;;;;;474972;250;28285;-67
2021/05/02 09:16:49;;;;;;;16.20;14.10;;;9.20;99.90;;;;;;474964;250;28151;-65
2021/05/02 09:18:50;;;;;;;14.60;13.00;;;9.30;99.90;;;;;;474997;250;28830;-65
2021/05/02 09:20:54;;;;;;;16.83;15.13;;;9.50;99.90;;;;;;475006;250;28926;-65
2021/05/02 09:22:55;;;;;;;13.53;12.13;;;9.90;99.90;;;;;;475014;250;28726;-65
2021/05/02 09:24:57;;;;;;;15.03;12.60;;;;;;;;;;474998;250;28590;-65
2021/05/02 09:26:58;;;;;;;15.00;12.30;;;9.60;99.90;;;;;;475001;250;27332;-65
2021/05/02 09:29:05;;;;;;;15.07;12.60;;;9.60;99.90;;;;;;475004;250;28272;-66
2021/05/02 09:31:04;;;;;;;14.93;11.83;;;9.60;99.90;;;;;;475004;250;28550;-66
2021/05/02 09:33:05;;;;;;;13.07;11.70;;;9.60;99.90;;;;;;475004;250;28260;-65
2021/05/02 09:35:06;;;;;;;13.10;11.67;;;9.60;99.90;;;;;;474995;250;28484;-65
2021/05/02 09:37:08;;;;;;;13.10;11.30;;;9.40;99.90;;;;;;474992;250;28383;-67
2021/05/02 09:39:09;;;;;;;13.70;12.30;;;9.40;99.90;;;;;;475000;250;28696;-65
2021/05/02 09:41:10;;;;;;;14.37;12.40;;;9.70;99.90;;;;;;475001;250;28817;-66
2021/05/02 09:43:11;;;;;;;14.20;12.80;;;10.00;99.90;;;;;;475002;250;28327;-66
2021/05/02 09:45:13;;;;;;;13.20;11.03;;;10.30;99.90;;;;;;474999;250;28252;-65
2021/05/02 09:47:14;;;;;;;12.00;9.63;;;10.10;99.90;;;;;;474991;250;28149;-65
2021/05/02 09:49:16;;;;;;;11.30;10.07;;;10.20;99.90;;;;;;475003;250;28288;-65
2021/05/02 09:51:17;;;;;;;11.00;9.40;;;10.50;99.90;;;;;;474984;250;28402;-67
2021/05/02 09:53:18;;;;;;;11.50;7.60;;;10.70;99.90;;;;;;474994;250;28551;-66
2021/05/02 09:55:19;;;;;;;6.70;6.00;;;10.80;99.90;;;;;;475001;250;28827;-66
2021/05/02 09:57:20;;;;;;;7.20;6.50;;;10.60;99.90;;;;;;475010;250;28984;-65
2021/05/02 09:59:22;;;;;;;9.53;6.73;;;10.30;99.90;;;;;;474995;250;28705;-65
2021/05/02 10:01:23;;;;;;;7.93;5.67;;;10.10;99.90;;;;;;474986;250;28154;-66
2021/05/02 10:03:24;;;;;;;6.40;5.60;;;10.10;99.90;;;;;;474995;250;28491;-67
2021/05/02 10:05:25;;;;;;;9.07;6.00;;;10.00;99.90;;;;;;474999;250;28116;-66
2021/05/02 10:07:28;;;;;;;9.70;6.00;;;10.00;99.90;;;;;;474994;250;28214;-65
2021/05/02 10:09:28;;;;;;;8.30;6.03;;;9.90;99.90;;;;;;474980;250;28388;-65
2021/05/02 10:11:29;;;;;;;6.90;6.10;;;9.90;99.90;;;;;;474996;250;28272;-67
2021/05/02 10:13:30;;;;;;;8.20;6.37;;;10.00;99.90;;;;;;474981;250;28267;-65
2021/05/02 10:15:31;;;;;;;5.70;5.10;;;10.30;99.90;;;;;;474973;250;28245;-66
2021/05/02 10:17:33;;;;;;;9.53;7.20;;;10.50;99.90;;;;;;474992;250;28241;-65
2021/05/02 10:19:34;;;;;;;7.10;5.83;;;10.80;99.90;;;;;;474982;250;29026;-65
2021/05/02 10:21:35;;;;;;;6.67;6.10;;;11.10;99.90;;;;;;474997;250;28586;-66
2021/05/02 10:23:37;;;;;;;6.77;6.17;;;11.30;99.90;;;;;;474992;250;28591;-66
2021/05/02 10:25:38;;;;;;;5.20;4.70;;;11.10;99.90;;;;;;474987;250;28728;-66
2021/05/02 10:27:39;;;;;;;5.60;4.80;;;11.10;99.90;;;;;;474983;250;28196;-65
2021/05/02 10:29:41;;;;;;;4.93;4.50;;;10.90;99.90;;;;;;475000;250;28253;-65
2021/05/02 10:31:42;;;;;;;6.13;4.50;;;10.80;99.90;;;;;;474968;250;28723;-67